createdAt,value
2022-09-11T00:01:40.558Z,6.97
2022-09-11T00:04:07.871Z,8.95
2022-09-11T00:06:34.718Z,8.27
2022-09-11T00:09:04.846Z,12.20
2022-09-11T00:11:41.081Z,3.92
2022-09-11T00:14:10.548Z,6.68
2022-09-11T00:16:41.731Z,10.57
2022-09-11T00:19:13.190Z,9.13
2022-09-11T00:21:40.232Z,12.50
2022-09-11T00:24:09.829Z,5.05
2022-09-11T00:26:37.988Z,11.63
2022-09-11T00:29:05.070Z,8.00
2022-09-11T00:31:32.678Z,5.63
2022-09-11T00:33:59.732Z,5.80
2022-09-11T00:36:35.827Z,6.18
2022-09-11T00:39:03.212Z,7.25
2022-09-11T00:41:36.014Z,5.72
2022-09-11T00:44:02.930Z,4.72
2022-09-11T00:46:56.300Z,4.93
2022-09-11T00:49:47.801Z,8.98
2022-09-11T00:52:22.461Z,6.60
2022-09-11T00:54:56.499Z,2.28
2022-09-11T00:57:28.506Z,6.30
2022-09-11T00:59:58.662Z,2.70
2022-09-11T01:02:28.833Z,5.32
2022-09-11T01:04:57.425Z,2.72
2022-09-11T01:07:26.928Z,5.15
2022-09-11T01:09:55.019Z,5.30
2022-09-11T01:12:39.962Z,5.28
2022-09-11T01:15:25.341Z,5.63
2022-09-11T01:18:19.991Z,8.05
2022-09-11T01:21:08.931Z,4.57
2022-09-11T01:23:54.892Z,4.57
2022-09-11T01:27:10.510Z,7.63
2022-09-11T01:29:51.040Z,12.50
2022-09-11T01:32:39.913Z,16.40
2022-09-11T01:36:03.284Z,7.22
2022-09-11T01:38:35.406Z,2.13
2022-09-11T01:41:29.044Z,7.00
2022-09-11T01:44:23.222Z,10.57
2022-09-11T01:46:53.780Z,9.65
2022-09-11T01:49:48.089Z,4.88
2022-09-11T01:52:29.968Z,6.28
2022-09-11T01:55:29.517Z,3.00
2022-09-11T01:58:03.648Z,5.93
2022-09-11T02:00:32.275Z,2.33
2022-09-11T02:03:11.871Z,4.03
2022-09-11T02:05:55.575Z,1.60
2022-09-11T02:08:49.278Z,1.50
2022-09-11T02:11:17.953Z,3.42
2022-09-11T02:14:18.062Z,7.93
2022-09-11T02:16:56.983Z,4.50
2022-09-11T02:19:29.831Z,4.75
2022-09-11T02:21:58.545Z,6.72
2022-09-11T02:24:27.649Z,4.78
2022-09-11T02:27:13.660Z,5.95
2022-09-11T02:29:40.631Z,10.77
2022-09-11T02:32:07.519Z,6.32
2022-09-11T02:34:36.828Z,17.40
2022-09-11T02:37:49.263Z,6.35
2022-09-11T02:40:44.051Z,6.68
2022-09-11T02:43:34.807Z,6.80
2022-09-11T02:46:34.546Z,10.05
2022-09-11T02:50:02.296Z,10.73
2022-09-11T02:52:41.433Z,9.05
2022-09-11T02:55:18.806Z,8.95
2022-09-11T02:58:15.640Z,11.40
2022-09-11T03:00:42.889Z,7.70
2022-09-11T03:03:09.766Z,10.98
2022-09-11T03:05:37.109Z,10.52
2022-09-11T03:08:04.307Z,9.68
2022-09-11T03:10:31.143Z,7.80
2022-09-11T03:12:59.632Z,7.15
2022-09-11T03:15:27.379Z,7.55
2022-09-11T03:17:54.213Z,8.85
2022-09-11T03:20:21.987Z,8.93
2022-09-11T03:22:48.821Z,7.70
2022-09-11T03:25:15.675Z,6.80
2022-09-11T03:27:43.430Z,12.95
2022-09-11T03:30:10.742Z,8.70
2022-09-11T03:32:37.625Z,7.05
2022-09-11T03:35:04.773Z,10.02
2022-09-11T03:37:31.744Z,11.35
2022-09-11T03:39:58.873Z,11.90
2022-09-11T03:42:25.800Z,13.48
2022-09-11T03:44:52.669Z,5.63
2022-09-11T03:47:22.075Z,12.05
2022-09-11T03:49:49.229Z,6.68
2022-09-11T03:52:16.044Z,10.57
2022-09-11T03:54:42.820Z,8.73
2022-09-11T03:57:09.997Z,9.05
2022-09-11T03:59:36.884Z,11.65
2022-09-11T04:02:03.916Z,7.25
2022-09-11T04:04:30.969Z,8.02
2022-09-11T04:06:58.379Z,7.25
2022-09-11T04:09:25.536Z,6.43
2022-09-11T04:11:52.283Z,6.22
2022-09-11T04:14:19.322Z,5.90
2022-09-11T04:16:46.367Z,9.30
2022-09-11T04:19:13.548Z,10.13
2022-09-11T04:21:40.827Z,7.97
2022-09-11T04:24:07.588Z,8.18
2022-09-11T04:26:34.445Z,9.32
2022-09-11T04:29:01.293Z,9.82
2022-09-11T04:31:28.436Z,9.07
2022-09-11T04:33:57.943Z,5.47
2022-09-11T04:36:26.937Z,7.25
2022-09-11T04:38:58.696Z,9.77
2022-09-11T04:41:26.749Z,6.88
2022-09-11T04:44:03.823Z,7.50
2022-09-11T04:46:31.901Z,8.73
2022-09-11T04:49:02.308Z,4.53
2022-09-11T04:51:32.703Z,4.72
2022-09-11T04:54:00.963Z,7.00
2022-09-11T04:56:31.312Z,11.32
2022-09-11T04:59:03.409Z,9.18
2022-09-11T05:01:32.136Z,5.90
2022-09-11T05:04:01.600Z,6.03
2022-09-11T05:06:30.373Z,12.40
2022-09-11T05:09:03.198Z,6.50
2022-09-11T05:11:30.358Z,13.98
2022-09-11T05:13:59.465Z,9.85
2022-09-11T05:16:29.149Z,6.20
2022-09-11T05:18:57.320Z,8.13
2022-09-11T05:21:26.048Z,8.45
2022-09-11T05:23:55.807Z,5.57
2022-09-11T05:26:36.399Z,7.72
2022-09-11T05:29:11.747Z,9.73
2022-09-11T05:31:39.422Z,6.75
2022-09-11T05:34:06.836Z,10.55
2022-09-11T05:36:35.356Z,10.90
2022-09-11T05:39:03.740Z,9.15
2022-09-11T05:41:31.624Z,12.27
2022-09-11T05:43:59.210Z,7.78
2022-09-11T05:46:26.466Z,7.22
2022-09-11T05:48:53.571Z,9.05
2022-09-11T05:51:21.905Z,8.57
2022-09-11T05:53:53.543Z,7.45
2022-09-11T05:56:23.807Z,8.18
2022-09-11T05:58:54.786Z,6.53
2022-09-11T06:01:25.771Z,8.98
2022-09-11T06:03:53.661Z,9.57
2022-09-11T06:06:22.782Z,8.80
2022-09-11T06:08:51.774Z,6.22
2022-09-11T06:11:21.124Z,6.63
2022-09-11T06:13:49.442Z,7.32
2022-09-11T06:16:23.941Z,6.65
2022-09-11T06:18:52.597Z,6.30
2022-09-11T06:21:23.113Z,10.50
2022-09-11T06:23:52.007Z,6.88
2022-09-11T06:26:22.672Z,6.72
2022-09-11T06:28:50.928Z,8.70
2022-09-11T06:31:26.671Z,7.20
2022-09-11T06:33:54.109Z,10.43
2022-09-11T06:36:23.912Z,6.65
2022-09-11T06:38:55.407Z,6.00
2022-09-11T06:41:22.969Z,6.18
2022-09-11T06:43:50.226Z,5.85
2022-09-11T06:46:20.126Z,7.82
2022-09-11T06:48:49.579Z,7.28
2022-09-11T06:51:20.156Z,3.78
2022-09-11T06:53:47.494Z,5.47
2022-09-11T06:56:18.130Z,4.53
2022-09-11T06:58:45.952Z,11.73
2022-09-11T07:01:15.977Z,7.25
2022-09-11T07:03:48.479Z,4.50
2022-09-11T07:06:18.904Z,6.47
2022-09-11T07:08:52.424Z,10.48
2022-09-11T07:11:20.267Z,5.90
2022-09-11T07:13:47.387Z,5.70
2022-09-11T07:16:16.490Z,5.70
2022-09-11T07:18:46.291Z,6.90
2022-09-11T07:21:21.296Z,6.40
2022-09-11T07:23:54.364Z,5.38
2022-09-11T07:28:51.421Z,6.47
2022-09-11T07:31:21.862Z,4.10
2022-09-11T07:33:50.898Z,3.85
2022-09-11T07:36:25.077Z,5.38
2022-09-11T07:38:52.504Z,3.97
2022-09-11T07:41:22.384Z,3.88
2022-09-11T07:43:57.537Z,3.20
2022-09-11T07:46:25.195Z,3.67
2022-09-11T07:48:51.963Z,3.22
2022-09-11T07:53:59.440Z,3.17
2022-09-11T07:56:27.668Z,5.07
2022-09-11T07:58:55.676Z,2.90
2022-09-11T08:01:29.733Z,3.72
2022-09-11T08:04:02.120Z,2.42
2022-09-11T08:06:32.994Z,3.67
2022-09-11T08:09:06.739Z,4.75
2022-09-11T08:11:38.848Z,3.22
2022-09-11T08:14:07.304Z,1.57
2022-09-11T08:16:36.189Z,3.65
2022-09-11T08:19:04.016Z,2.80
2022-09-11T08:21:31.038Z,2.22
2022-09-11T08:23:58.263Z,3.63
2022-09-11T08:26:28.882Z,3.72
2022-09-11T08:28:57.882Z,1.42
2022-09-11T08:31:27.627Z,1.35
2022-09-11T08:33:55.967Z,1.35
2022-09-11T08:36:24.270Z,1.20
2022-09-11T08:38:52.451Z,1.10
2022-09-11T08:41:28.196Z,1.48
2022-09-11T08:44:03.263Z,1.30
2022-09-11T08:46:40.761Z,2.35
2022-09-11T08:49:32.518Z,1.20
2022-09-11T08:52:03.025Z,1.17
2022-09-11T08:54:33.389Z,1.00
2022-09-11T08:57:35.107Z,1.67
2022-09-11T09:00:20.875Z,1.42
2022-09-11T09:03:10.991Z,2.25
2022-09-11T09:06:24.647Z,1.25
2022-09-11T09:09:13.633Z,0.93
2022-09-11T09:11:56.753Z,2.67
2022-09-11T09:15:17.053Z,1.02
2022-09-11T09:17:50.194Z,1.08
2022-09-11T09:20:21.545Z,10.15
2022-09-11T09:23:05.610Z,9.50
2022-09-11T09:25:38.645Z,1.38
2022-09-11T09:31:01.463Z,1.00
2022-09-11T09:33:38.087Z,0.80
2022-09-11T09:36:31.328Z,2.67
2022-09-11T09:38:58.752Z,1.77
2022-09-11T09:41:56.840Z,1.05
2022-09-11T09:44:50.928Z,0.98
2022-09-11T09:47:18.563Z,1.25
2022-09-11T09:49:47.216Z,1.27
2022-09-11T09:52:24.304Z,1.33
2022-09-11T09:55:06.833Z,1.90
2022-09-11T09:57:39.898Z,2.13
2022-09-11T10:00:17.758Z,0.70
2022-09-11T10:02:53.903Z,2.13
2022-09-11T10:05:29.370Z,1.67
2022-09-11T10:07:59.710Z,2.70
2022-09-11T10:10:34.822Z,1.45
2022-09-11T10:13:18.897Z,1.52
2022-09-11T10:15:49.386Z,4.97
2022-09-11T10:18:42.981Z,2.17
2022-09-11T10:21:12.898Z,1.17
2022-09-11T10:24:03.824Z,1.08
2022-09-11T10:26:40.856Z,1.08
2022-09-11T10:29:15.998Z,1.17
2022-09-11T10:31:55.070Z,1.55
2022-09-11T10:34:25.923Z,1.10
2022-09-11T10:37:03.468Z,1.20
2022-09-11T10:39:35.270Z,1.77
2022-09-11T10:42:16.568Z,1.63
2022-09-11T10:44:45.725Z,4.40
2022-09-11T10:47:28.283Z,2.63
2022-09-11T10:50:30.994Z,7.38
2022-09-11T10:53:18.090Z,3.30
2022-09-11T10:56:00.639Z,2.90
2022-09-11T10:58:34.349Z,3.30
2022-09-11T11:01:01.484Z,8.32
2022-09-11T11:03:29.524Z,5.35
2022-09-11T11:06:15.618Z,5.75
2022-09-11T11:08:58.700Z,4.00
2022-09-11T11:11:56.081Z,8.52
2022-09-11T11:14:32.445Z,3.92
2022-09-11T11:17:45.697Z,4.43
2022-09-11T11:20:46.280Z,2.57
2022-09-11T11:23:26.466Z,3.65
2022-09-11T11:26:21.019Z,4.35
2022-09-11T11:29:19.687Z,6.10
2022-09-11T11:31:55.637Z,3.70
2022-09-11T11:34:37.202Z,3.22
2022-09-11T11:37:19.269Z,2.00
2022-09-11T11:40:03.591Z,2.75
2022-09-11T11:42:38.571Z,3.78
2022-09-11T11:45:41.012Z,2.70
2022-09-11T11:48:38.022Z,2.20
2022-09-11T11:51:15.505Z,2.70
2022-09-11T11:54:17.531Z,7.03
2022-09-11T11:57:02.726Z,2.90
2022-09-11T11:59:44.609Z,2.33
2022-09-11T12:02:34.974Z,2.13
2022-09-11T12:05:24.183Z,2.53
2022-09-11T12:07:51.899Z,2.78
2022-09-11T12:10:33.599Z,2.17
2022-09-11T12:13:05.649Z,2.20
2022-09-11T12:15:34.607Z,3.73
2022-09-11T12:18:12.271Z,2.25
2022-09-11T12:20:45.215Z,4.50
2022-09-11T12:26:09.003Z,1.95
2022-09-11T12:28:37.833Z,1.75
2022-09-11T12:31:13.974Z,2.80
2022-09-11T12:33:44.277Z,1.98
2022-09-11T12:36:17.044Z,2.63
2022-09-11T12:38:49.191Z,2.53
2022-09-11T12:41:27.417Z,3.03
2022-09-11T12:43:54.981Z,2.30
2022-09-11T12:46:21.670Z,2.50
2022-09-11T12:49:18.061Z,2.10
2022-09-11T12:51:54.098Z,3.03
2022-09-11T12:54:29.695Z,3.33
2022-09-11T12:57:12.915Z,3.78
2022-09-11T13:02:36.516Z,5.18
2022-09-11T13:05:17.153Z,2.65
2022-09-11T13:07:47.699Z,2.50
2022-09-11T13:10:35.158Z,2.70
2022-09-11T13:13:04.969Z,3.60
2022-09-11T13:15:36.719Z,4.45
2022-09-11T13:18:25.551Z,2.20
2022-09-11T13:21:00.645Z,5.65
2022-09-11T13:23:28.555Z,4.05
2022-09-11T13:25:58.525Z,2.30
2022-09-11T13:28:28.165Z,3.22
2022-09-11T13:31:02.213Z,2.22
2022-09-11T13:33:31.294Z,1.90
2022-09-11T13:36:02.698Z,6.15
2022-09-11T13:38:37.409Z,2.85
2022-09-11T13:41:19.994Z,1.65
2022-09-11T13:43:58.309Z,2.33
2022-09-11T13:46:32.534Z,1.90
2022-09-11T13:49:06.469Z,1.50
2022-09-11T13:51:33.987Z,2.65
2022-09-11T13:54:07.502Z,2.15
2022-09-11T13:56:48.609Z,1.38
2022-09-11T13:59:50.347Z,1.77
2022-09-11T14:02:44.410Z,2.58
2022-09-11T14:05:16.021Z,2.38
2022-09-11T14:07:56.723Z,4.95
2022-09-11T14:10:42.799Z,2.55
2022-09-11T14:13:33.272Z,3.08
2022-09-11T14:16:08.926Z,1.50
2022-09-11T14:18:59.740Z,2.08
2022-09-11T14:21:36.485Z,3.30
2022-09-11T14:24:07.298Z,1.48
2022-09-11T14:26:35.034Z,4.75
2022-09-11T14:29:31.371Z,1.65
2022-09-11T14:32:38.976Z,1.55
2022-09-11T14:35:09.510Z,2.22
2022-09-11T14:37:45.560Z,1.40
2022-09-11T14:40:18.733Z,2.40
2022-09-11T14:42:46.258Z,2.25
2022-09-11T14:45:23.928Z,2.22
2022-09-11T14:47:51.169Z,2.13
2022-09-11T14:50:18.538Z,1.50
2022-09-11T14:52:46.376Z,2.13
2022-09-11T14:55:19.353Z,1.60
2022-09-11T15:00:16.483Z,2.22
2022-09-11T15:02:43.267Z,2.20
2022-09-11T15:05:16.864Z,2.60
2022-09-11T15:07:46.927Z,2.30
2022-09-11T15:10:15.118Z,3.58
2022-09-11T15:12:42.683Z,3.47
2022-09-11T15:15:10.553Z,2.67
2022-09-11T15:17:37.502Z,4.78
2022-09-11T15:20:07.158Z,2.40
2022-09-11T15:22:34.809Z,2.42
2022-09-11T15:25:01.898Z,2.58
2022-09-11T15:27:28.769Z,5.20
2022-09-11T15:29:55.607Z,2.78
2022-09-11T15:32:22.487Z,3.95
2022-09-11T15:34:49.500Z,2.88
2022-09-11T15:37:16.942Z,2.97
2022-09-11T15:39:44.241Z,3.95
2022-09-11T15:42:11.894Z,2.65
2022-09-11T15:44:39.107Z,3.42
2022-09-11T15:47:06.180Z,3.05
2022-09-11T15:49:33.261Z,3.15
2022-09-11T15:52:00.346Z,2.53
2022-09-11T15:54:27.552Z,3.33
2022-09-11T15:56:54.867Z,3.35
2022-09-11T15:59:21.770Z,3.58
2022-09-11T16:01:48.914Z,3.03
2022-09-11T16:04:20.174Z,3.05
2022-09-11T16:06:48.897Z,2.97
2022-09-11T16:09:18.201Z,7.00
2022-09-11T16:11:47.758Z,3.38
2022-09-11T16:14:27.529Z,2.92
2022-09-11T16:16:57.106Z,9.25
2022-09-11T16:19:27.814Z,3.78
2022-09-11T16:21:57.176Z,2.55
2022-09-11T16:24:26.554Z,4.10
2022-09-11T16:26:55.913Z,3.22
2022-09-11T16:29:25.819Z,6.07
2022-09-11T16:31:52.776Z,2.92
2022-09-11T16:34:19.661Z,4.45
2022-09-11T16:36:46.930Z,2.85
2022-09-11T16:39:22.133Z,6.97
2022-09-11T16:41:49.296Z,3.40
2022-09-11T16:44:17.179Z,5.43
2022-09-11T16:46:45.372Z,5.13
2022-09-11T16:49:18.361Z,3.85
2022-09-11T16:54:15.105Z,3.90
2022-09-11T16:56:45.921Z,3.28
2022-09-11T16:59:13.145Z,4.05
2022-09-11T17:01:40.003Z,3.63
2022-09-11T17:04:06.989Z,5.70
2022-09-11T17:06:33.829Z,5.07
2022-09-11T17:09:04.102Z,4.78
2022-09-11T17:11:33.269Z,8.68
2022-09-11T17:14:02.267Z,4.13
2022-09-11T17:16:31.999Z,4.50
2022-09-11T17:19:01.501Z,4.15
2022-09-11T17:21:35.571Z,4.00
2022-09-11T17:24:04.638Z,9.05
2022-09-11T17:26:31.942Z,5.47
2022-09-11T17:29:05.040Z,4.30
2022-09-11T17:33:59.182Z,5.15
2022-09-11T17:36:26.080Z,4.57
2022-09-11T17:38:52.927Z,7.72
2022-09-11T17:41:21.019Z,6.68
2022-09-11T17:43:48.374Z,6.05
2022-09-11T17:46:19.872Z,5.32
2022-09-11T17:48:47.860Z,6.03
2022-09-11T17:51:20.120Z,16.10
2022-09-11T17:53:55.516Z,6.93
2022-09-11T17:56:32.546Z,4.45
2022-09-11T17:59:00.714Z,5.32
2022-09-11T18:01:30.470Z,4.65
2022-09-11T18:03:59.195Z,4.50
2022-09-11T18:06:34.434Z,7.45
2022-09-11T18:09:19.674Z,4.68
2022-09-11T18:11:50.333Z,10.68
2022-09-11T18:14:18.791Z,5.05
2022-09-11T18:16:47.804Z,10.23
2022-09-11T18:19:17.870Z,10.80
2022-09-11T18:21:49.770Z,7.85
2022-09-11T18:24:21.619Z,7.93
2022-09-11T18:26:59.970Z,6.55
2022-09-11T18:29:27.069Z,7.18
2022-09-11T18:31:54.594Z,7.82
2022-09-11T18:34:24.577Z,10.38
2022-09-11T18:36:52.058Z,5.03
2022-09-11T18:39:21.661Z,14.60
2022-09-11T18:41:50.491Z,11.05
2022-09-11T18:44:20.361Z,10.85
2022-09-11T18:46:47.981Z,7.30
2022-09-11T18:49:16.124Z,8.90
2022-09-11T18:51:43.224Z,9.43
2022-09-11T18:54:20.050Z,8.15
2022-09-11T18:56:49.119Z,9.30
2022-09-11T18:59:16.802Z,8.70
2022-09-11T19:01:43.888Z,7.53
2022-09-11T19:04:12.341Z,10.50
2022-09-11T19:06:40.244Z,8.90
2022-09-11T19:09:10.399Z,8.23
2022-09-11T19:11:37.668Z,10.85
2022-09-11T19:14:08.359Z,6.88
2022-09-11T19:16:36.162Z,8.23
2022-09-11T19:19:04.026Z,14.65
2022-09-11T19:21:30.907Z,10.82
2022-09-11T19:24:00.595Z,8.55
2022-09-11T19:26:33.431Z,6.93
2022-09-11T19:29:00.955Z,6.82
2022-09-11T19:31:29.642Z,7.47
2022-09-11T19:34:00.730Z,7.38
2022-09-11T19:36:31.419Z,12.02
2022-09-11T19:39:01.704Z,24.67
2022-09-11T19:41:35.311Z,10.93
2022-09-11T19:44:04.939Z,6.72
2022-09-11T19:46:34.858Z,12.45
2022-09-11T19:49:05.531Z,9.57
2022-09-11T19:51:41.453Z,7.38
2022-09-11T19:54:11.015Z,16.17
2022-09-11T19:56:38.856Z,9.52
2022-09-11T19:59:08.055Z,14.25
2022-09-11T20:01:35.175Z,6.35
2022-09-11T20:04:02.377Z,11.32
2022-09-11T20:06:32.118Z,11.93
2022-09-11T20:09:27.353Z,9.80
2022-09-11T20:11:47.303Z,8.20
2022-09-11T20:14:14.122Z,8.48
2022-09-11T20:16:41.524Z,11.85
2022-09-11T20:19:10.050Z,12.38
2022-09-11T20:21:36.932Z,16.20
2022-09-11T20:24:07.205Z,13.43
2022-09-11T20:26:34.045Z,14.95
2022-09-11T20:29:12.794Z,11.52
2022-09-11T20:31:47.655Z,9.35
2022-09-11T20:34:17.416Z,6.40
2022-09-11T20:36:44.311Z,6.70
2022-09-11T20:39:13.549Z,6.97
2022-09-11T20:41:41.139Z,11.73
2022-09-11T20:44:08.245Z,5.70
2022-09-11T20:46:35.161Z,12.07
2022-09-11T20:49:03.035Z,6.57
2022-09-11T20:51:30.254Z,6.25
2022-09-11T20:53:57.097Z,8.43
2022-09-11T20:56:24.210Z,7.68
2022-09-11T20:58:51.914Z,9.60
2022-09-11T21:01:24.072Z,13.35
2022-09-11T21:03:56.968Z,8.80
2022-09-11T21:06:27.031Z,8.73
2022-09-11T21:08:57.090Z,9.10
2022-09-11T21:11:29.638Z,7.15
2022-09-11T21:13:56.436Z,6.28
2022-09-11T21:16:23.325Z,7.88
2022-09-11T21:18:56.815Z,7.18
2022-09-11T21:21:25.833Z,6.75
2022-09-11T21:23:58.706Z,9.45
2022-09-11T21:26:27.429Z,8.40
2022-09-11T21:28:56.217Z,7.90
2022-09-11T21:31:23.600Z,6.00
2022-09-11T21:33:50.662Z,12.98
2022-09-11T21:36:17.537Z,7.65
2022-09-11T21:38:44.557Z,8.68
2022-09-11T21:41:13.494Z,6.85
2022-09-11T21:43:40.399Z,6.28
2022-09-11T21:46:08.874Z,7.50
2022-09-11T21:48:38.734Z,7.28
2022-09-11T21:51:18.662Z,9.05
2022-09-11T21:53:47.142Z,7.43
2022-09-11T21:56:29.056Z,6.22
2022-09-11T21:58:56.415Z,17.38
2022-09-11T22:01:25.151Z,19.98
2022-09-11T22:03:52.890Z,17.15
2022-09-11T22:06:21.385Z,18.33
2022-09-11T22:08:48.163Z,18.02
2022-09-11T22:11:16.135Z,20.45
2022-09-11T22:13:43.770Z,24.67
2022-09-11T22:16:14.265Z,23.05
2022-09-11T22:18:42.170Z,14.25
2022-09-11T22:21:10.302Z,16.17
2022-09-11T22:23:37.229Z,19.25
2022-09-11T22:26:19.128Z,26.77
2022-09-11T22:28:45.937Z,22.73
2022-09-11T22:31:19.898Z,19.40
2022-09-11T22:33:46.998Z,10.48
2022-09-11T22:36:24.658Z,9.85
2022-09-11T22:38:51.853Z,9.63
2022-09-11T22:41:19.712Z,11.10
2022-09-11T22:43:48.742Z,8.52
2022-09-11T22:46:16.775Z,11.70
2022-09-11T22:48:43.919Z,10.93
2022-09-11T22:51:10.834Z,8.57
2022-09-11T22:53:39.576Z,8.48
2022-09-11T22:56:07.601Z,9.65
2022-09-11T22:58:34.401Z,10.18
2022-09-11T23:01:03.567Z,10.68
2022-09-11T23:03:30.754Z,10.15
2022-09-11T23:06:18.399Z,8.20
2022-09-11T23:08:46.812Z,6.78
2022-09-11T23:11:17.105Z,10.38
2022-09-11T23:13:44.300Z,8.10
2022-09-11T23:16:20.878Z,8.52
2022-09-11T23:18:48.747Z,11.50
2022-09-11T23:21:15.674Z,6.38
2022-09-11T23:23:43.348Z,8.38
2022-09-11T23:26:14.070Z,10.30
2022-09-11T23:28:41.464Z,23.63
2022-09-11T23:31:20.779Z,22.05
2022-09-11T23:33:48.539Z,19.30
2022-09-11T23:36:17.400Z,25.73
2022-09-11T23:38:46.204Z,22.35
2022-09-11T23:41:13.788Z,20.95
2022-09-11T23:43:41.389Z,11.02
2022-09-11T23:46:08.618Z,9.80
2022-09-11T23:48:35.531Z,10.18
2022-09-11T23:51:02.694Z,14.20
2022-09-11T23:53:30.324Z,10.73
2022-09-11T23:55:58.094Z,11.70
2022-09-11T23:58:24.960Z,9.95
